createdAt,value
2022-08-02T06:32:17.287Z,4.38
2022-08-02T06:34:43.994Z,4.18
2022-08-02T06:37:41.053Z,4.78
2022-08-02T06:41:04.797Z,4.35
2022-08-02T06:43:42.680Z,4.55
2022-08-02T06:47:09.170Z,4.50
2022-08-02T06:49:00.788Z,4.78
2022-08-02T06:51:27.965Z,4.72
2022-08-02T06:53:54.743Z,4.78
2022-08-02T06:56:21.443Z,5.10
2022-08-02T06:58:48.134Z,5.43
2022-08-02T07:01:14.840Z,4.95
2022-08-02T07:03:41.974Z,5.00
2022-08-02T07:06:10.294Z,5.22
2022-08-02T07:08:50.919Z,5.25
2022-08-02T07:11:26.266Z,5.78
2022-08-02T07:13:52.888Z,5.90
2022-08-02T07:16:19.577Z,5.90
2022-08-02T07:18:46.848Z,6.57
2022-08-02T07:21:13.845Z,5.90
2022-08-02T07:23:41.141Z,6.72
2022-08-02T07:26:07.800Z,7.18
2022-08-02T07:28:34.524Z,7.00
2022-08-02T07:31:01.752Z,7.18
2022-08-02T07:33:38.017Z,7.32
2022-08-02T07:36:09.597Z,6.55
2022-08-02T07:38:37.587Z,7.35
2022-08-02T07:41:04.622Z,6.88
2022-08-02T07:43:31.637Z,6.72
2022-08-02T07:46:00.580Z,7.28
2022-08-02T07:48:28.025Z,7.40
2022-08-02T07:50:54.670Z,7.65
2022-08-02T07:53:30.574Z,8.05
2022-08-02T07:56:11.962Z,8.60
2022-08-02T07:58:39.192Z,7.78
2022-08-02T08:01:05.833Z,7.53
2022-08-02T08:03:32.557Z,5.57
2022-08-02T08:06:00.466Z,6.47
2022-08-02T08:08:27.100Z,6.47
2022-08-02T08:10:53.777Z,6.65
2022-08-02T08:13:20.466Z,6.07
2022-08-02T08:15:51.905Z,5.20
2022-08-02T08:18:20.656Z,5.47
2022-08-02T08:20:48.853Z,5.30
2022-08-02T08:23:15.533Z,5.57
2022-08-02T08:25:43.410Z,5.50
2022-08-02T08:28:11.252Z,4.63
2022-08-02T08:30:40.473Z,4.20
2022-08-02T08:33:09.807Z,3.67
2022-08-02T08:35:36.553Z,4.50
2022-08-02T08:38:07.530Z,4.65
2022-08-02T08:40:37.142Z,4.20
2022-08-02T08:43:05.208Z,3.80
2022-08-02T08:45:35.543Z,3.20
2022-08-02T08:48:16.051Z,3.13
2022-08-02T08:51:04.430Z,3.17
2022-08-02T08:53:37.114Z,3.25
2022-08-02T08:56:04.203Z,3.13
2022-08-02T08:58:31.263Z,3.20
2022-08-02T09:00:58.369Z,3.53
2022-08-02T09:03:25.105Z,4.00
2022-08-02T09:05:51.732Z,4.53
2022-08-02T09:08:19.002Z,4.18
2022-08-02T09:10:47.667Z,4.18
2022-08-02T09:13:31.370Z,4.10
2022-08-02T09:16:12.977Z,4.63
2022-08-02T09:18:47.442Z,4.38
2022-08-02T09:21:17.123Z,3.80
2022-08-02T09:23:46.424Z,4.32
2022-08-02T09:26:18.817Z,5.07
2022-08-02T09:28:47.527Z,4.50
2022-08-02T09:31:16.654Z,4.65
2022-08-02T09:33:45.076Z,4.20
2022-08-02T09:36:16.825Z,5.13
2022-08-02T09:39:05.574Z,3.67
2022-08-02T09:41:37.436Z,4.97
2022-08-02T09:44:07.217Z,4.55
2022-08-02T09:46:39.755Z,4.90
2022-08-02T09:49:13.325Z,4.43
2022-08-02T09:51:51.552Z,4.57
2022-08-02T09:54:23.471Z,4.20
2022-08-02T09:56:52.311Z,3.95
2022-08-02T09:59:21.460Z,4.20
2022-08-02T10:01:51.506Z,4.53
2022-08-02T10:04:31.593Z,4.40
2022-08-02T10:06:59.787Z,4.40
2022-08-02T10:09:29.631Z,4.00
2022-08-02T10:11:57.431Z,3.53
2022-08-02T10:14:25.678Z,2.83
2022-08-02T10:16:54.675Z,2.97
2022-08-02T10:20:02.332Z,2.45
2022-08-02T10:22:13.849Z,2.30
2022-08-02T10:24:47.813Z,2.40
2022-08-02T10:27:20.201Z,2.85
2022-08-02T10:29:54.300Z,2.50
2022-08-02T10:32:30.166Z,2.97
2022-08-02T10:35:32.771Z,2.50
2022-08-02T10:38:04.188Z,1.90
2022-08-02T10:40:53.107Z,2.05
2022-08-02T10:43:32.069Z,2.22
2022-08-02T10:46:25.081Z,2.35
2022-08-02T10:49:36.694Z,1.73
2022-08-02T10:52:02.959Z,1.30
2022-08-02T10:54:57.300Z,1.63
2022-08-02T10:57:28.836Z,1.80
2022-08-02T10:59:59.129Z,1.90
2022-08-02T11:02:36.550Z,1.98
2022-08-02T11:05:05.643Z,1.88
2022-08-02T11:07:36.372Z,1.75
2022-08-02T11:10:39.628Z,2.42
2022-08-02T11:13:17.475Z,2.15
2022-08-02T11:16:10.745Z,1.70
2022-08-02T11:19:03.437Z,1.63
2022-08-02T11:21:35.343Z,1.60
2022-08-02T11:24:29.062Z,1.67
2022-08-02T11:26:56.812Z,1.48
2022-08-02T11:29:32.782Z,1.40
2022-08-02T11:32:08.349Z,1.92
2022-08-02T11:34:37.960Z,1.65
2022-08-02T11:37:06.241Z,1.70
2022-08-02T11:39:33.196Z,1.65
2022-08-02T11:42:00.785Z,1.52
2022-08-02T11:44:29.568Z,2.00
2022-08-02T11:47:02.950Z,1.75
2022-08-02T11:49:30.220Z,1.70
2022-08-02T11:52:05.356Z,1.42
2022-08-02T11:54:41.251Z,2.08
2022-08-02T11:57:20.324Z,1.40
2022-08-02T11:59:55.947Z,1.60
2022-08-02T12:02:32.736Z,1.42
2022-08-02T12:05:02.504Z,1.35
2022-08-02T12:07:37.133Z,1.58
2022-08-02T12:10:19.174Z,1.20
2022-08-02T12:13:00.696Z,1.05
2022-08-02T12:15:46.852Z,1.00
2022-08-02T12:18:41.723Z,0.60
2022-08-02T12:21:23.138Z,1.10
2022-08-02T12:23:59.438Z,1.20
2022-08-02T12:26:28.444Z,1.40
2022-08-02T12:28:57.702Z,1.48
2022-08-02T12:31:57.692Z,1.02
2022-08-02T12:34:31.212Z,1.15
2022-08-02T12:37:09.138Z,1.02
2022-08-02T12:39:45.978Z,1.10
2022-08-02T12:42:16.134Z,1.13
2022-08-02T12:44:58.794Z,0.98
2022-08-02T12:47:35.615Z,1.50
2022-08-02T12:50:18.530Z,1.20
2022-08-02T12:52:47.265Z,1.58
2022-08-02T12:55:21.353Z,1.38
2022-08-02T12:57:53.536Z,1.05
2022-08-02T13:00:24.917Z,1.58
2022-08-02T13:02:51.505Z,1.40
2022-08-02T13:05:18.475Z,1.33
2022-08-02T13:07:45.334Z,1.30
2022-08-02T13:10:12.318Z,1.13
2022-08-02T13:12:39.740Z,1.00
2022-08-02T13:15:12.467Z,1.17
2022-08-02T13:17:54.877Z,1.17
2022-08-02T13:20:21.725Z,1.10
2022-08-02T13:22:52.838Z,0.90
2022-08-02T13:25:22.898Z,1.05
2022-08-02T13:27:53.473Z,1.10
2022-08-02T13:30:20.400Z,1.05
2022-08-02T13:32:47.355Z,0.90
2022-08-02T13:35:18.058Z,1.17
2022-08-02T13:37:47.761Z,0.90
2022-08-02T13:40:22.764Z,0.90
2022-08-02T13:42:49.954Z,0.80
2022-08-02T13:45:16.849Z,1.00
2022-08-02T13:48:04.371Z,0.82
2022-08-02T13:50:31.870Z,0.90
2022-08-02T13:52:58.488Z,1.05
2022-08-02T13:55:25.204Z,0.93
2022-08-02T13:57:53.565Z,1.23
2022-08-02T14:00:35.570Z,1.00
2022-08-02T14:03:07.205Z,1.25
2022-08-02T14:05:47.600Z,1.20
2022-08-02T14:08:19.204Z,1.15
2022-08-02T14:10:47.929Z,1.30
2022-08-02T14:13:15.191Z,1.20
2022-08-02T14:15:42.998Z,1.23
2022-08-02T14:18:09.857Z,1.40
2022-08-02T14:20:36.661Z,0.85
2022-08-02T14:23:03.344Z,1.20
2022-08-02T14:25:29.962Z,1.45
2022-08-02T14:27:56.630Z,1.25
2022-08-02T14:30:23.915Z,1.48
2022-08-02T14:32:50.936Z,1.30
2022-08-02T14:35:17.802Z,1.40
2022-08-02T14:37:44.796Z,1.10
2022-08-02T14:40:30.861Z,1.40
2022-08-02T14:42:59.204Z,1.20
2022-08-02T14:45:40.256Z,1.42
2022-08-02T14:48:09.062Z,1.20
2022-08-02T14:50:36.871Z,1.25
2022-08-02T14:53:03.521Z,1.50
2022-08-02T14:55:30.207Z,1.40
2022-08-02T14:57:56.868Z,1.50
2022-08-02T15:00:23.519Z,1.52
2022-08-02T15:02:50.325Z,1.15
2022-08-02T15:05:17.085Z,1.48
2022-08-02T15:07:49.112Z,1.10
2022-08-02T15:10:16.581Z,1.48
2022-08-02T15:12:45.724Z,1.10
2022-08-02T15:15:12.512Z,1.23
2022-08-02T15:17:39.351Z,1.20
2022-08-02T15:20:24.862Z,0.93
2022-08-02T15:22:53.285Z,1.10
2022-08-02T15:25:21.777Z,1.10
2022-08-02T15:27:48.518Z,1.25
2022-08-02T15:30:15.378Z,1.55
2022-08-02T15:32:53.318Z,1.15
2022-08-02T15:35:20.858Z,1.17
2022-08-02T15:37:47.684Z,0.90
2022-08-02T15:40:14.620Z,1.40
2022-08-02T15:42:41.559Z,1.13
2022-08-02T15:45:08.581Z,1.13
2022-08-02T15:47:41.476Z,1.13
2022-08-02T15:52:41.664Z,0.95
2022-08-02T15:55:08.562Z,1.30
2022-08-02T15:57:35.287Z,1.30
2022-08-02T16:00:03.870Z,1.40
2022-08-02T16:02:30.487Z,1.20
2022-08-02T16:04:57.208Z,1.08
2022-08-02T16:07:24.011Z,1.40
2022-08-02T16:09:51.763Z,1.33
2022-08-02T16:12:18.685Z,1.23
2022-08-02T16:14:45.387Z,1.15
2022-08-02T16:17:12.045Z,1.40
2022-08-02T16:19:49.051Z,1.58
2022-08-02T16:22:17.446Z,1.45
2022-08-02T16:24:44.286Z,1.40
2022-08-02T16:27:11.343Z,0.95
2022-08-02T16:29:38.086Z,1.55
2022-08-02T16:32:05.482Z,1.40
2022-08-02T16:34:45.121Z,0.95
2022-08-02T16:37:19.036Z,1.27
2022-08-02T16:39:45.698Z,1.60
2022-08-02T16:42:12.560Z,1.40
2022-08-02T16:44:53.534Z,1.42
2022-08-02T16:47:36.844Z,1.52
2022-08-02T16:50:10.213Z,1.13
2022-08-02T16:52:37.533Z,1.23
2022-08-02T16:55:10.342Z,1.27
2022-08-02T16:57:43.459Z,1.23
2022-08-02T17:00:13.410Z,1.38
2022-08-02T17:02:42.369Z,1.33
2022-08-02T17:05:13.882Z,1.60
2022-08-02T17:08:07.180Z,1.40
2022-08-02T17:10:29.397Z,1.65
2022-08-02T17:12:57.421Z,1.30
2022-08-02T17:16:16.162Z,1.42
2022-08-02T17:18:14.135Z,1.42
2022-08-02T17:20:40.813Z,1.55
2022-08-02T17:23:08.993Z,1.60
2022-08-02T17:25:43.342Z,1.42
2022-08-02T17:28:19.240Z,1.52
2022-08-02T17:30:46.057Z,1.40
2022-08-02T17:33:13.045Z,1.80
2022-08-02T17:35:51.829Z,1.60
2022-08-02T17:41:07.072Z,1.30
2022-08-02T17:43:42.216Z,1.30
2022-08-02T17:46:09.217Z,1.00
2022-08-02T17:48:55.654Z,1.50
2022-08-02T17:51:33.023Z,1.98
2022-08-02T17:54:10.928Z,1.48
2022-08-02T17:56:38.173Z,1.63
2022-08-02T17:59:20.571Z,1.30
2022-08-02T18:01:53.030Z,1.42
2022-08-02T18:04:27.654Z,1.60
2022-08-02T18:09:23.825Z,1.30
2022-08-02T18:11:53.653Z,1.35
2022-08-02T18:14:24.387Z,1.33
2022-08-02T18:16:53.260Z,1.60
2022-08-02T18:19:20.331Z,1.35
2022-08-02T18:21:48.478Z,1.67
2022-08-02T18:24:16.394Z,1.67
2022-08-02T18:26:43.604Z,1.35
2022-08-02T18:29:12.233Z,1.27
2022-08-02T18:31:40.212Z,1.33
2022-08-02T18:34:19.373Z,1.55
2022-08-02T18:36:51.010Z,1.30
2022-08-02T18:39:17.735Z,1.50
2022-08-02T18:41:44.758Z,1.45
2022-08-02T18:44:15.866Z,1.67
2022-08-02T18:46:43.492Z,1.60
2022-08-02T18:49:14.946Z,1.00
2022-08-02T18:51:43.440Z,1.13
2022-08-02T18:54:10.229Z,1.08
2022-08-02T18:56:38.848Z,1.38
2022-08-02T18:59:23.782Z,1.15
2022-08-02T19:01:51.359Z,1.35
2022-08-02T19:04:27.786Z,1.33
2022-08-02T19:06:55.640Z,1.40
2022-08-02T19:09:22.338Z,1.30
2022-08-02T19:14:35.788Z,1.45
2022-08-02T19:17:16.157Z,1.20
2022-08-02T19:19:51.313Z,1.15
2022-08-02T19:22:20.247Z,1.42
2022-08-02T19:24:50.346Z,1.30
2022-08-02T19:27:25.621Z,1.60
2022-08-02T19:29:53.524Z,1.67
2022-08-02T19:32:41.472Z,1.45
2022-08-02T19:35:19.066Z,1.48
2022-08-02T19:37:59.283Z,1.42
2022-08-02T19:40:29.004Z,1.38
2022-08-02T19:45:49.758Z,1.40
2022-08-02T19:51:07.975Z,3.05
2022-08-02T19:53:48.004Z,1.60
2022-08-02T19:56:20.825Z,1.48
2022-08-02T19:58:50.272Z,1.30
2022-08-02T20:01:21.967Z,1.50
2022-08-02T20:03:54.246Z,1.33
2022-08-02T20:06:29.972Z,1.25
2022-08-02T20:09:01.254Z,1.40
2022-08-02T20:11:34.624Z,1.23
2022-08-02T20:14:03.303Z,1.73
2022-08-02T20:16:33.045Z,1.17
2022-08-02T20:19:00.582Z,1.35
2022-08-02T20:21:36.060Z,1.00
2022-08-02T20:24:05.767Z,1.20
2022-08-02T20:26:32.692Z,1.23
2022-08-02T20:29:03.451Z,1.55
2022-08-02T20:31:30.597Z,1.42
2022-08-02T20:33:57.595Z,1.85
2022-08-02T20:36:26.502Z,1.40
2022-08-02T20:38:54.508Z,1.58
2022-08-02T20:41:22.212Z,1.73
2022-08-02T20:43:49.590Z,1.10
2022-08-02T20:46:16.518Z,1.55
2022-08-02T20:48:44.164Z,1.50
2022-08-02T20:51:12.379Z,1.40
2022-08-02T20:53:54.575Z,1.48
2022-08-02T20:56:22.246Z,1.80
2022-08-02T20:58:51.975Z,1.27
2022-08-02T21:01:21.167Z,1.60
2022-08-02T21:03:58.714Z,1.45
2022-08-02T21:06:28.165Z,1.52
2022-08-02T21:08:55.520Z,1.70
2022-08-02T21:11:25.555Z,1.70
2022-08-02T21:14:07.200Z,1.48
2022-08-02T21:16:36.109Z,1.50
2022-08-02T21:19:07.970Z,1.20
2022-08-02T21:21:36.477Z,1.52
2022-08-02T21:24:03.487Z,1.30
2022-08-02T21:26:31.041Z,1.20
2022-08-02T21:29:03.656Z,1.48
2022-08-02T21:31:35.805Z,1.20
2022-08-02T21:34:21.722Z,1.20
2022-08-02T21:36:49.614Z,1.20
2022-08-02T21:39:17.611Z,1.10
2022-08-02T21:41:46.514Z,1.52
2022-08-02T21:44:19.282Z,1.33
2022-08-02T21:46:49.388Z,1.45
2022-08-02T21:49:17.835Z,1.58
2022-08-02T21:51:49.575Z,1.50
2022-08-02T21:57:07.422Z,1.50
2022-08-02T21:59:35.430Z,1.25
2022-08-02T22:02:04.911Z,1.33
2022-08-02T22:04:35.200Z,2.00
2022-08-02T22:07:02.104Z,1.20
2022-08-02T22:09:43.726Z,1.38
2022-08-02T22:12:17.757Z,1.33
2022-08-02T22:14:49.622Z,1.38
2022-08-02T22:58:47.186Z,1.58
2022-08-02T22:58:51.465Z,1.55
2022-08-02T22:58:53.027Z,1.50
2022-08-02T22:58:53.231Z,1.35
2022-08-02T22:59:12.563Z,1.42
